createdAt,value
2022-08-07T00:01:12.548Z,5.65
2022-08-07T00:04:33.160Z,4.17
2022-08-07T00:07:44.113Z,5.45
2022-08-07T00:10:57.538Z,9.25
2022-08-07T00:14:05.919Z,7.10
2022-08-07T00:17:16.278Z,7.75
2022-08-07T00:20:29.928Z,6.50
2022-08-07T00:23:43.096Z,3.95
2022-08-07T00:27:06.380Z,5.15
2022-08-07T00:30:26.633Z,6.40
2022-08-07T00:33:35.183Z,8.75
2022-08-07T00:36:46.413Z,7.30
2022-08-07T00:39:55.058Z,15.47
2022-08-07T00:43:02.660Z,8.93
2022-08-07T00:46:10.683Z,8.70
2022-08-07T00:49:24.882Z,8.25
2022-08-07T00:52:47.382Z,7.50
2022-08-07T00:56:02.272Z,7.92
2022-08-07T00:59:11.718Z,10.85
2022-08-07T01:02:29.345Z,9.65
2022-08-07T01:05:53.643Z,8.15
2022-08-07T01:09:02.792Z,5.23
2022-08-07T01:12:30.091Z,6.53
2022-08-07T01:16:00.977Z,4.70
2022-08-07T01:19:18.525Z,6.70
2022-08-07T01:22:29.213Z,7.85
2022-08-07T01:25:55.835Z,9.43
2022-08-07T01:29:04.750Z,7.30
2022-08-07T01:32:13.754Z,6.15
2022-08-07T01:35:24.719Z,5.55
2022-08-07T01:38:45.665Z,8.50
2022-08-07T01:42:36.903Z,7.67
2022-08-07T03:04:29.538Z,8.35
2022-08-07T03:08:05.421Z,8.53
2022-08-07T03:11:12.442Z,11.10
2022-08-07T03:14:24.849Z,9.15
2022-08-07T03:17:36.275Z,7.30
2022-08-07T03:21:08.505Z,6.60
2022-08-07T03:24:27.288Z,6.80
2022-08-07T03:27:58.780Z,8.73
2022-08-07T03:31:24.697Z,8.33
2022-08-07T03:35:01.018Z,7.33
2022-08-07T03:38:29.831Z,6.77
2022-08-07T03:41:47.741Z,6.97
2022-08-07T03:45:01.386Z,6.10
2022-08-07T03:48:10.050Z,8.40
2022-08-07T03:51:20.773Z,9.90
2022-08-07T03:54:35.641Z,7.90
2022-08-07T03:58:32.941Z,7.50
2022-08-07T04:01:27.599Z,8.80
2022-08-07T04:04:38.663Z,8.90
2022-08-07T04:07:50.392Z,5.00
2022-08-07T04:12:20.741Z,8.65
2022-08-07T04:14:37.412Z,6.00
2022-08-07T04:18:58.033Z,6.25
2022-08-07T04:21:16.417Z,8.18
2022-08-07T04:24:30.715Z,7.60
2022-08-07T04:27:44.283Z,5.33
2022-08-07T04:30:58.668Z,6.50
2022-08-07T04:34:16.662Z,5.50
2022-08-07T04:37:25.182Z,5.60
2022-08-07T04:40:44.067Z,5.93
2022-08-07T04:44:13.260Z,6.58
2022-08-07T04:47:57.364Z,6.65
2022-08-07T04:51:14.125Z,4.72
2022-08-07T04:54:33.393Z,5.17
2022-08-07T04:58:10.523Z,6.80
2022-08-07T05:01:29.872Z,4.83
2022-08-07T05:04:58.261Z,5.70
2022-08-07T05:08:13.831Z,7.78
2022-08-07T05:11:56.863Z,6.10
2022-08-07T05:15:22.942Z,5.75
2022-08-07T05:18:41.510Z,5.53
2022-08-07T05:22:00.793Z,7.25
2022-08-07T05:25:26.114Z,4.33
2022-08-07T05:28:49.935Z,2.65
2022-08-07T05:32:00.818Z,4.30
2022-08-07T05:35:13.479Z,3.90
2022-08-07T05:39:00.058Z,4.65
2022-08-07T05:42:01.551Z,4.15
2022-08-07T05:45:26.169Z,3.52
2022-08-07T05:48:58.016Z,3.15
2022-08-07T05:52:08.539Z,4.95
2022-08-07T05:55:23.558Z,2.87
2022-08-07T05:58:52.830Z,5.75
2022-08-07T06:02:04.288Z,2.75
2022-08-07T06:05:16.116Z,4.90
2022-08-07T06:08:31.407Z,4.07
2022-08-07T06:11:40.727Z,4.85
2022-08-07T06:14:49.933Z,4.53
2022-08-07T06:22:15.600Z,4.83
2022-08-07T06:24:52.708Z,4.67
2022-08-07T06:28:10.051Z,4.62
2022-08-07T06:31:38.322Z,4.10
2022-08-07T06:34:49.218Z,2.42
2022-08-07T06:37:58.345Z,5.33
2022-08-07T06:41:12.990Z,5.45
2022-08-07T06:44:24.137Z,5.47
2022-08-07T06:47:38.622Z,3.58
2022-08-07T06:50:49.310Z,4.47
2022-08-07T06:55:27.765Z,6.33
2022-08-07T06:57:39.560Z,4.40
2022-08-07T07:00:59.002Z,9.17
2022-08-07T07:04:27.973Z,3.75
2022-08-07T07:07:59.148Z,7.50
2022-08-07T07:11:13.078Z,2.90
2022-08-07T07:14:23.625Z,5.72
2022-08-07T07:17:39.390Z,6.22
2022-08-07T07:20:57.911Z,3.87
2022-08-07T07:24:12.554Z,4.43
2022-08-07T07:27:26.061Z,4.10
2022-08-07T07:30:53.146Z,5.20
2022-08-07T07:34:06.135Z,4.40
2022-08-07T07:37:44.512Z,4.95
2022-08-07T07:40:46.042Z,3.85
2022-08-07T07:44:16.960Z,6.15
2022-08-07T07:47:27.014Z,4.15
2022-08-07T07:50:38.859Z,4.00
2022-08-07T07:53:51.759Z,4.10
2022-08-07T07:57:02.985Z,4.80
2022-08-07T08:00:20.991Z,4.53
2022-08-07T08:04:10.797Z,5.60
2022-08-07T08:07:08.799Z,4.87
2022-08-07T08:10:38.015Z,3.30
2022-08-07T08:13:54.402Z,4.50
2022-08-07T08:17:55.413Z,4.75
2022-08-07T08:20:36.822Z,6.25
2022-08-07T08:24:03.823Z,5.03
2022-08-07T08:27:16.610Z,5.05
2022-08-07T08:30:25.907Z,6.72
2022-08-07T08:33:35.429Z,4.85
2022-08-07T08:36:49.365Z,4.42
2022-08-07T08:40:16.324Z,7.20
2022-08-07T08:43:42.937Z,7.00
2022-08-07T08:47:07.670Z,4.72
2022-08-07T08:50:35.131Z,4.60
2022-08-07T08:53:53.966Z,6.87
2022-08-07T08:57:06.372Z,5.12
2022-08-07T09:00:16.877Z,6.25
2022-08-07T09:03:48.109Z,5.45
2022-08-07T09:07:04.050Z,6.25
2022-08-07T09:10:18.873Z,6.15
2022-08-07T09:13:39.654Z,4.75
2022-08-07T09:16:58.961Z,3.17
2022-08-07T09:20:35.547Z,5.35
2022-08-07T09:24:53.623Z,3.12
2022-08-07T09:27:59.779Z,4.28
2022-08-07T09:31:17.412Z,6.20
2022-08-07T09:34:31.033Z,3.85
2022-08-07T09:37:53.653Z,5.67
2022-08-07T09:41:07.553Z,5.62
2022-08-07T09:44:52.187Z,3.73
2022-08-07T09:48:12.251Z,4.90
2022-08-07T09:52:10.066Z,3.70
2022-08-07T09:55:29.601Z,4.12
2022-08-07T09:59:13.719Z,3.35
2022-08-07T10:02:39.048Z,4.17
2022-08-07T10:06:25.875Z,5.08
2022-08-07T10:10:02.604Z,3.90
2022-08-07T10:13:55.266Z,3.67
2022-08-07T10:17:16.700Z,4.45
2022-08-07T10:20:36.521Z,3.85
2022-08-07T10:24:08.568Z,3.17
2022-08-07T10:27:46.017Z,2.85
2022-08-07T10:31:11.344Z,3.20
2022-08-07T10:34:39.973Z,2.52
2022-08-07T10:38:20.827Z,2.75
2022-08-07T10:41:46.268Z,4.62
2022-08-07T10:45:04.138Z,5.95
2022-08-07T10:48:34.945Z,4.75
2022-08-07T10:52:02.027Z,3.42
2022-08-07T10:59:08.370Z,6.10
2022-08-07T11:02:32.752Z,4.08
2022-08-07T11:05:51.383Z,3.27
2022-08-07T11:09:04.526Z,4.90
2022-08-07T11:12:32.108Z,4.20
2022-08-07T11:15:42.530Z,2.77
2022-08-07T11:19:11.210Z,3.77
2022-08-07T11:22:37.246Z,6.22
2022-08-07T11:26:06.520Z,4.25
2022-08-07T11:29:42.131Z,3.47
2022-08-07T11:32:54.182Z,2.97
2022-08-07T11:36:25.218Z,3.95
2022-08-07T11:40:01.273Z,3.72
2022-08-07T11:43:16.741Z,3.02
2022-08-07T11:47:00.522Z,3.95
2022-08-07T11:50:32.226Z,2.77
2022-08-07T11:54:01.747Z,3.22
2022-08-07T11:57:59.886Z,4.22
2022-08-07T12:01:02.101Z,2.33
2022-08-07T12:04:26.989Z,4.25
2022-08-07T12:07:39.899Z,4.92
2022-08-07T12:11:08.393Z,2.95
2022-08-07T12:14:23.038Z,3.02
2022-08-07T12:17:58.926Z,4.65
2022-08-07T12:21:56.052Z,3.00
2022-08-07T12:26:00.929Z,3.42
2022-08-07T12:28:52.991Z,3.90
2022-08-07T12:32:12.400Z,3.42
2022-08-07T12:35:22.154Z,4.00
2022-08-07T12:38:42.554Z,3.25
2022-08-07T12:41:53.348Z,3.15
2022-08-07T12:45:04.299Z,4.03
2022-08-07T12:48:27.675Z,4.90
2022-08-07T12:51:51.490Z,4.10
2022-08-07T12:55:24.943Z,4.47
2022-08-07T12:58:56.900Z,4.33
2022-08-07T13:02:22.194Z,4.17
2022-08-07T13:06:02.521Z,4.53
2022-08-07T13:10:19.879Z,3.65
2022-08-07T13:12:58.216Z,5.08
2022-08-07T13:16:17.223Z,6.10
2022-08-07T13:19:46.261Z,3.35
2022-08-07T13:24:01.469Z,3.70
2022-08-07T13:26:46.173Z,3.62
2022-08-07T13:30:00.112Z,2.52
2022-08-07T13:34:30.139Z,4.20
2022-08-07T13:37:10.728Z,3.52
2022-08-07T13:40:36.667Z,2.93
2022-08-07T13:43:56.133Z,3.75
2022-08-07T13:47:09.565Z,4.25
2022-08-07T13:50:32.719Z,4.10
2022-08-07T13:54:00.635Z,2.87
2022-08-07T13:57:14.551Z,4.42
2022-08-07T14:00:54.021Z,3.07
2022-08-07T14:04:09.687Z,4.95
2022-08-07T14:07:17.839Z,4.47
2022-08-07T14:13:45.135Z,2.42
2022-08-07T14:17:00.158Z,3.80
2022-08-07T14:22:39.682Z,3.33
2022-08-07T14:24:05.389Z,3.05
2022-08-07T14:27:16.190Z,2.65
2022-08-07T14:30:52.222Z,4.28
2022-08-07T14:34:01.280Z,3.98
2022-08-07T14:37:17.884Z,2.83
2022-08-07T14:40:35.077Z,2.20
2022-08-07T14:43:58.983Z,3.33
2022-08-07T14:47:16.545Z,3.90
2022-08-07T14:50:26.241Z,4.28
2022-08-07T14:54:03.626Z,2.95
2022-08-07T15:00:44.647Z,4.20
2022-08-07T15:04:05.696Z,4.10
2022-08-07T15:10:58.646Z,3.40
2022-08-07T15:14:10.839Z,3.45
2022-08-07T15:17:28.446Z,3.87
2022-08-07T15:20:55.059Z,4.33
2022-08-07T15:25:13.907Z,4.00
2022-08-07T15:27:39.426Z,4.12
2022-08-07T15:31:09.315Z,4.22
2022-08-07T15:34:17.617Z,5.15
2022-08-07T15:38:01.306Z,4.17
2022-08-07T15:41:23.019Z,2.02
2022-08-07T15:44:30.185Z,2.12
2022-08-07T15:48:00.245Z,2.53
2022-08-07T15:51:11.952Z,2.77
2022-08-07T15:54:21.065Z,5.03
2022-08-07T15:57:39.994Z,4.05
2022-08-07T16:00:56.416Z,3.80
2022-08-07T16:04:14.683Z,3.12
2022-08-07T16:08:30.889Z,3.08
2022-08-07T16:11:03.576Z,3.67
2022-08-07T16:14:19.137Z,3.15
2022-08-07T16:18:02.917Z,4.87
2022-08-07T16:22:04.290Z,5.10
2022-08-07T16:24:52.862Z,5.50
2022-08-07T16:29:18.426Z,3.10
2022-08-07T16:32:00.631Z,4.42
2022-08-07T16:35:59.412Z,4.47
2022-08-07T16:39:16.657Z,3.20
2022-08-07T16:42:44.759Z,2.60
2022-08-07T16:47:04.433Z,4.85
2022-08-07T16:50:20.404Z,3.35
2022-08-07T16:54:12.231Z,4.67
2022-08-07T16:58:02.095Z,2.77
2022-08-07T17:01:34.407Z,3.67
2022-08-07T17:04:58.583Z,2.67
2022-08-07T17:08:09.249Z,3.95
2022-08-07T17:11:28.300Z,3.93
2022-08-07T17:15:04.225Z,3.67
2022-08-07T17:18:19.619Z,4.45
2022-08-07T17:21:50.914Z,5.12
2022-08-07T17:25:15.228Z,3.92
2022-08-07T17:28:35.637Z,3.72
2022-08-07T17:32:02.641Z,3.15
2022-08-07T17:35:50.502Z,3.15
2022-08-07T17:38:56.182Z,2.40
2022-08-07T17:42:08.765Z,5.25
2022-08-07T17:45:27.952Z,2.70
2022-08-07T17:48:46.374Z,3.95
2022-08-07T17:52:01.134Z,4.45
2022-08-07T17:55:54.076Z,3.67
2022-08-07T17:58:51.854Z,3.45
2022-08-07T18:02:08.795Z,3.42
2022-08-07T18:06:03.456Z,6.28
2022-08-07T18:09:05.718Z,4.55
2022-08-07T18:12:28.724Z,6.22
2022-08-07T18:15:53.479Z,5.90
2022-08-07T18:21:09.615Z,3.05
2022-08-07T18:22:45.737Z,6.30
2022-08-07T18:26:15.241Z,8.23
2022-08-07T18:30:06.642Z,9.95
2022-08-07T18:33:38.994Z,8.03
2022-08-07T18:38:57.523Z,6.25
2022-08-07T18:41:08.178Z,6.00
2022-08-07T18:44:45.966Z,4.60
2022-08-07T18:48:09.468Z,5.37
2022-08-07T18:52:34.673Z,3.92
2022-08-07T18:55:40.494Z,6.12
2022-08-07T18:59:01.130Z,6.90
2022-08-07T19:02:36.090Z,3.97
2022-08-07T19:06:03.718Z,4.20
2022-08-07T19:09:56.293Z,6.77
2022-08-07T19:12:58.260Z,4.57
2022-08-07T19:17:01.360Z,4.97
2022-08-07T19:20:04.525Z,10.43
2022-08-07T19:27:16.781Z,8.57
2022-08-07T19:30:57.947Z,7.60
2022-08-07T19:33:58.128Z,7.55
2022-08-07T19:37:17.565Z,6.58
2022-08-07T19:40:30.407Z,6.57
2022-08-07T19:43:52.137Z,8.20
2022-08-07T19:47:14.296Z,5.80
2022-08-07T19:50:43.940Z,7.45
2022-08-07T19:54:31.357Z,5.80
2022-08-07T19:58:02.926Z,7.03
2022-08-07T20:00:57.196Z,4.45
2022-08-07T20:04:08.357Z,6.40
2022-08-07T20:07:23.894Z,5.73
2022-08-07T20:10:54.693Z,9.05
2022-08-07T20:14:07.321Z,8.45
2022-08-07T20:17:22.653Z,7.12
2022-08-07T20:23:48.400Z,8.40
2022-08-07T20:27:04.244Z,7.47
2022-08-07T20:30:22.535Z,5.90
2022-08-07T20:33:36.924Z,6.75
2022-08-07T20:36:51.677Z,8.37
2022-08-07T20:40:05.381Z,8.30
2022-08-07T20:43:32.743Z,7.83
2022-08-07T20:46:43.816Z,6.42
2022-08-07T20:50:01.711Z,7.13
2022-08-07T20:53:17.215Z,7.33
2022-08-07T20:56:41.021Z,6.28
2022-08-07T21:00:06.283Z,7.45
2022-08-07T21:03:25.601Z,7.30
2022-08-07T21:06:35.456Z,6.30
2022-08-07T21:09:52.934Z,7.65
2022-08-07T21:13:15.478Z,4.97
2022-08-07T21:16:29.279Z,6.45
2022-08-07T21:19:51.730Z,7.12
2022-08-07T21:23:15.370Z,6.87
2022-08-07T21:26:42.912Z,6.30
2022-08-07T21:30:02.694Z,6.47
2022-08-07T21:33:21.692Z,7.58
2022-08-07T21:36:37.486Z,7.05
2022-08-07T21:39:56.538Z,8.58
2022-08-07T21:43:06.549Z,7.50
2022-08-07T21:46:25.210Z,7.92
2022-08-07T21:50:02.588Z,9.87
2022-08-07T21:53:17.582Z,6.95
2022-08-07T21:56:39.627Z,7.55
2022-08-07T22:00:03.972Z,6.07
2022-08-07T22:03:18.857Z,6.85
2022-08-07T22:06:56.615Z,6.53
2022-08-07T22:10:07.455Z,7.62
2022-08-07T22:13:24.262Z,7.15
2022-08-07T22:16:55.910Z,7.95
2022-08-07T22:20:22.617Z,7.85
2022-08-07T22:23:40.218Z,7.50
2022-08-07T22:27:00.201Z,9.95
2022-08-07T22:30:17.000Z,8.70
2022-08-07T22:33:53.117Z,6.62
2022-08-07T22:37:12.407Z,5.63
2022-08-07T22:40:28.087Z,6.62
2022-08-07T22:43:42.375Z,7.65
2022-08-07T22:47:16.846Z,6.65
2022-08-07T22:50:54.911Z,4.80
2022-08-07T22:54:16.226Z,6.97
2022-08-07T22:57:47.002Z,5.28
2022-08-07T23:01:15.464Z,9.53
2022-08-07T23:04:58.204Z,7.75
2022-08-07T23:08:46.180Z,6.40
2022-08-07T23:12:32.689Z,5.47
2022-08-07T23:16:05.433Z,9.35
2022-08-07T23:19:51.256Z,5.97
2022-08-07T23:24:05.888Z,5.28
2022-08-07T23:28:21.879Z,5.67
2022-08-07T23:32:49.146Z,5.95
2022-08-07T23:35:16.611Z,3.83
2022-08-07T23:38:54.564Z,7.50
2022-08-07T23:42:31.748Z,5.12
2022-08-07T23:49:49.975Z,4.15
2022-08-07T23:53:16.698Z,6.72
2022-08-07T23:56:35.144Z,4.73
